KSRQKRSW

Guest
Details From KSRQ - Sarasota Bradenton Intl
To KRSW - Southwest Florida Intl
Flight Number -
Tags generated
Created
Modified
Stats Distance 67 nm / 124 km
Max Altitude 0 ft / 0 m
Waypoints 2
Social Downloads 0
Likes 0
Share VATSIM

Download

Looking for another format? Having issues loading an existing format? Contact us
Advertisement - Login to hide

Notes

Basic altitude profile: - Ascent Rate: 2500ft/min - Ascent Speed: 250kts - Cruise Altitude: 4000ft - Cruise Speed: 420kts - Descent Rate: 1500ft/min - Descent Speed: 250kts Options: - Use NATs: no - Use PACOTS: no - Use low airways: no - Use high airways: no

Route

KSRQ KRSW

ID Type Via Altitude Latitude Longitude Leg Dist Tot Dist Heading (true) Name
O KSRQ APT - 0 ft / 0 m 27.39544˚ -82.55404˚ - 0 nm - Sarasota Bradenton Intl
O KRSW APT - 0 ft / 0 m 26.53616˚ -81.75515˚ 67 nm 67 nm 140° / 141° Southwest Florida Intl

Altitude Profile

Advertisement - Login to hide

KSRQ

Details ICAO KSRQ (SRQ)
Name Sarasota Bradenton Intl
Region United States
Timezone America/New_York (UTC-4.0)
Stats Elevation 31 ft / 9 m (AMSL)
Location 27.395443° -82.554035°
Runways 2
Magnetic Variation 5.504° W

METAR

KSRQ 250253Z 07004KT 10SM CLR 23/23 A3005 RMK AO2 SLP175 60008 T02330228 53015

Decode

TAF

TAF KSRQ 242321Z 2500/2524 15008KT P6SM SCT050 BKN100 FM250200 10004KT P6SM SCT050 BKN250 FM251400 14008KT P6SM SCT025 SCT100 FM252000 18008KT P6SM VCTS SCT040CB SCT100

Decode

Departure Runways

ID Width Length Bearing (true) Bearing (mag) Surface Threshold Offset Overrun Length
04 150 ft / 46 m 5,019 ft / 1,530 m 37.96° 43.46° Asphalt 0 ft / 0 m 0 ft / 0 m
14 150 ft / 46 m 9,510 ft / 2,899 m 134.53° 140.03° Asphalt 1,350 ft / 411 m 0 ft / 0 m
22 150 ft / 46 m 5,019 ft / 1,530 m 217.96° 223.46° Asphalt 0 ft / 0 m 0 ft / 0 m
32 150 ft / 46 m 9,510 ft / 2,899 m 314.54° 320.04° Asphalt 1,147 ft / 350 m 0 ft / 0 m

KRSW

Details ICAO KRSW (RSW)
Name Southwest Florida Intl
Region United States
Timezone America/New_York (UTC-4.0)
Stats Elevation 30 ft / 9 m (AMSL)
Location 26.536162° -81.755152°
Runways 1
Magnetic Variation 5.885° W

METAR

KRSW 250253Z 07004KT 10SM CLR 24/23 A3005 RMK AO2 SLP172 T02440228 51010

Decode

TAF

KRSW 242321Z 2500/2524 17006KT P6SM SCT060 BKN100 FM250200 VRB03KT P6SM FEW060 BKN250 FM251400 12007KT P6SM SCT025 SCT100 FM251900 15008KT P6SM VCTS SCT040CB BKN100

Decode

Destination Runways

ID Width Length Bearing (true) Bearing (mag) Surface Threshold Offset Overrun Length
06 150 ft / 46 m 12,004 ft / 3,659 m 53.96° 59.85° Asphalt 0 ft / 0 m 0 ft / 0 m
24 150 ft / 46 m 12,004 ft / 3,659 m 233.97° 239.86° Asphalt 0 ft / 0 m 0 ft / 0 m

Approach Navaids

Runway Type Ident Frequency Range Bearing (true) Bearing (mag) Slope Elevation
06 Localiser IRSW 111.50 MHz 18 nm / 33 km 53.97° 59.86° - 28 ft / 9 m (AMSL)
06 Glidescope IRSW 111.50 MHz 10 nm / 19 km 53.96° 59.85° 3.00° 27 ft / 8 m (AMSL)

Popular Alternatives